Klamath Falls, OR

8:22 PM PDT on October 31, 2014 (GMT -0700)
Klamath Falls International | Change Station
CLOSE
Current Station
Airport
Location: Klamath Falls,
Elevation: 4091 ft
Nearby Weather Stations

Elev 4091 ft 42.15 °N, 121.72 °W | Updated 18 minutes ago

Overcast
Overcast
41 °F
Feels Like 41 °F
N
0
Wind Variable Wind from North

Today
High -- | Low -- °F
--% Chance of Precip.
Yesterday
High -- | Low -- °F
Precip. -- in
7:38 AM 6:01 PM
First Quarter, 62% visible
Pressure 29.78 in
Visibility 10.0 miles
Clouds Mostly Cloudy 2700 ft
Overcast 3200 ft
Dew Point 38 °F
Humidity 89%
Rainfall 0.49 in
Snow Depth Not available.
UV 0 out of 12
Pollen .40 out of 12
Air Quality Not available.
Flu Activity Not available.
SPECI KLMT 010304Z 00000KT 10SM BKN027 OVC032 05/03 A2978 RMK AO2 T00500033

More Conditions Fewer Conditions

Pressure 29.78 in
Visibility 10.0 miles
Clouds Mostly Cloudy 2700 ft
Overcast 3200 ft
Dew Point 38 °F
Humidity 89%
Rainfall 0.49 in
Snow Depth Not available.
UV 0 out of 12
Pollen .40 out of 12
Air Quality Not available.
Flu Activity Not available.
SPECI KLMT 010304Z 00000KT 10SM BKN027 OVC032 05/03 A2978 RMK AO2 T00500033

More Conditions Fewer Conditions

10-Day Weather Forecast

Almanac

Astronomy

Oct. 31, 2014 Rise Set
Actual Time
Civil Twilight
Nautical Twilight
Astronomical Twilight
Moon
Length of Visible Light
Length of Day
Tomorrow will be .
, % of the Moon is Illuminated

Today's Extremes

State Highs State Lows

Community

WunderPhotos

Upload Photos

1,766,844 photos uploaded!

WunderBlogs® & News

Nearby

Air Quality

  Air Quality AQ Index Pollutant
Not available.

Snow Depth

Station Depth Elevation

Earthquake Activity

City Distance Mag. Time & Date
Minimum magnitude displayed is 2.5.

Coastal Water Temperatures

Place Temperature

Nearby Weather Stations